Terminal Aerodrome Forecast
Issued by NWS

Home | Current Version | Previous Version | Text Only | Print | Product List | Glossary On
Versions: 1 2 3 4 5 6 7 8 9 10 11 12 13 14 15 16
678
FTUS42 TJSJ 031127
TAFNCM
TAF
TNCM 031127Z 0312/0412 09007KT P6SM VCSH SCT020 BKN040
     FM031330 12010KT P6SM VCSH FEW018 BKN045
     FM032330 10005KT P6SM FEW020=

USA.gov is the U.S. government's official web portal to all federal, state and local government web resources and services.